Time;durP1;ratioP1;P1;durP2;ratioP2;P2;SDS_P1;SDS_P2;PMS_P1;PMS_P2;Temp;Humidity;BMP_temperature;BMP_pressure;BME280_temperature;BME280_humidity;BME280_pressure;Samples;Min_cycle;Max_cycle;Signal;HPM_P1;HPM_P2
2021/06/04 00:00:22;;;;;;;1999.90;999.90;;;9.40;99.90;;;;;;5095177;28;20263;-47
2021/06/04 00:02:50;;;;;;;1999.90;999.90;;;9.30;99.90;;;;;;5095044;28;20525;-48
2021/06/04 00:05:21;;;;;;;1999.90;999.90;;;9.20;99.90;;;;;;5094941;28;20172;-47
2021/06/04 00:07:48;;;;;;;1999.90;999.90;;;9.20;99.90;;;;;;5095225;28;20244;-47
2021/06/04 00:10:21;;;;;;;1999.90;999.90;;;9.20;99.90;;;;;;5094945;28;20199;-48
2021/06/04 00:12:48;;;;;;;1999.90;999.90;;;9.10;99.90;;;;;;5094738;28;20211;-47
2021/06/04 00:26:08;;;;;;;1999.90;999.90;;;9.20;99.90;;;;;;5110972;27;20895;-46
2021/06/04 00:28:35;;;;;;;1999.90;999.90;;;9.10;99.90;;;;;;5110633;28;20540;-46
2021/06/04 00:31:03;;;;;;;1999.90;999.90;;;9.00;99.90;;;;;;5110570;28;20162;-46
2021/06/04 00:33:30;;;;;;;1999.90;999.90;;;8.90;99.90;;;;;;5110485;28;20187;-47
2021/06/04 00:35:57;;;;;;;1999.90;999.90;;;8.70;99.90;;;;;;5110507;28;20621;-51
2021/06/04 00:38:24;;;;;;;1999.90;999.90;;;8.90;99.90;;;;;;5110497;28;20636;-46
2021/06/04 00:40:55;;;;;;;1999.90;999.90;;;8.90;99.90;;;;;;5110573;28;20173;-46
2021/06/04 00:43:24;;;;;;;1999.90;999.90;;;8.90;99.90;;;;;;5110537;28;20248;-46
2021/06/04 00:45:53;;;;;;;1999.90;999.90;;;8.80;99.90;;;;;;5110492;28;20159;-46
2021/06/04 00:48:22;;;;;;;1999.90;999.90;;;8.80;99.90;;;;;;5110341;28;20590;-46
2021/06/04 00:50:53;;;;;;;1999.90;999.90;;;8.80;99.90;;;;;;5110430;28;20171;-47
2021/06/04 00:53:25;;;;;;;1999.90;999.90;;;8.80;99.90;;;;;;5110352;28;20246;-46
2021/06/04 00:55:53;;;;;;;1999.90;999.90;;;8.70;99.90;;;;;;5110424;28;20510;-46
2021/06/04 00:58:26;;;;;;;1999.90;999.90;;;8.70;99.90;;;;;;5110204;28;20681;-54
2021/06/04 01:00:56;;;;;;;1999.90;999.90;;;8.70;99.90;;;;;;5110231;28;20177;-47
2021/06/04 01:03:26;;;;;;;1999.90;999.90;;;8.70;99.90;;;;;;5110144;28;20198;-51
2021/06/04 01:06:19;;;;;;;1999.90;999.90;;;8.70;99.90;;;;;;5110188;28;20168;-46
2021/06/04 01:09:20;;;;;;;1999.90;999.90;;;8.60;99.90;;;;;;5110015;28;20239;-51
2021/06/04 01:12:19;;;;;;;1999.90;999.90;;;8.60;99.90;;;;;;5109932;28;20162;-47
2021/06/04 01:15:02;;;;;;;1999.90;999.90;;;8.50;99.90;;;;;;5086588;28;20230;-46
2021/06/04 01:17:34;;;;;;;1999.90;999.90;;;8.50;99.90;;;;;;5109737;28;20215;-56
2021/06/04 01:20:19;;;;;;;1999.90;999.90;;;8.40;99.90;;;;;;5109807;28;20556;-54
2021/06/04 01:22:53;;;;;;;1999.90;999.90;;;8.30;99.90;;;;;;5109801;28;20158;-48
2021/06/04 01:25:44;;;;;;;1999.90;999.90;;;8.20;99.90;;;;;;5105411;28;20593;-54
2021/06/04 01:28:20;;;;;;;1999.90;999.90;;;8.10;99.90;;;;;;5096110;28;20246;-47
2021/06/04 01:31:26;;;;;;;1999.90;999.90;;;8.10;99.90;;;;;;5095981;28;20213;-46
2021/06/04 01:33:59;;;;;;;1999.90;999.90;;;8.10;99.90;;;;;;5094120;28;20218;-46
2021/06/04 01:36:30;;;;;;;1999.90;999.90;;;8.10;99.90;;;;;;5096079;28;20160;-47
2021/06/04 01:39:00;;;;;;;1999.90;999.90;;;8.10;99.90;;;;;;5095796;28;20631;-47
2021/06/04 01:41:31;;;;;;;1999.90;999.90;;;8.10;99.90;;;;;;5095836;28;20164;-46
2021/06/04 01:44:08;;;;;;;1999.90;999.90;;;8.10;99.90;;;;;;5095758;28;20216;-46
2021/06/04 01:46:47;;;;;;;1999.90;999.90;;;8.10;99.90;;;;;;5095692;28;20162;-47
2021/06/04 01:49:19;;;;;;;1999.90;999.90;;;8.20;99.90;;;;;;5095695;28;20155;-46
2021/06/04 01:51:55;;;;;;;1999.90;999.90;;;8.20;99.90;;;;;;5095599;28;20503;-51
2021/06/04 01:54:31;;;;;;;1999.90;999.90;;;8.30;99.90;;;;;;5095457;28;20179;-46
2021/06/04 01:57:07;;;;;;;1999.90;999.90;;;8.20;99.90;;;;;;5095697;28;20179;-46
2021/06/04 01:59:38;;;;;;;1999.90;999.90;;;8.20;99.90;;;;;;5095641;28;20561;-46
2021/06/04 02:02:05;;;;;;;1999.90;999.90;;;8.20;99.90;;;;;;5095485;28;20216;-47
2021/06/04 02:04:44;;;;;;;1999.90;999.90;;;8.00;99.90;;;;;;5095320;28;20171;-46
2021/06/04 02:07:18;;;;;;;1999.90;999.90;;;8.00;99.90;;;;;;5096477;28;20178;-50
2021/06/04 02:09:46;;;;;;;1999.90;999.90;;;7.90;99.90;;;;;;5097282;28;20185;-49
2021/06/04 02:12:13;;;;;;;1999.90;999.90;;;7.80;99.90;;;;;;5095597;28;20179;-48
2021/06/04 02:14:57;;;;;;;1999.90;999.90;;;7.80;99.90;;;;;;5095297;28;20538;-54
2021/06/04 02:17:43;;;;;;;1999.90;999.90;;;7.90;99.90;;;;;;5095359;28;20242;-49
2021/06/04 02:20:45;;;;;;;1999.90;999.90;;;7.90;99.90;;;;;;5095352;28;20205;-46
2021/06/04 02:23:31;;;;;;;1999.90;999.90;;;7.80;99.90;;;;;;5089533;28;20186;-51
2021/06/04 02:26:15;;;;;;;1999.90;999.90;;;8.00;99.90;;;;;;5095108;28;20219;-54
2021/06/04 02:28:46;;;;;;;1999.90;999.90;;;7.90;99.90;;;;;;5095113;28;20156;-57
2021/06/04 02:31:28;;;;;;;1999.90;999.90;;;7.90;99.90;;;;;;5095076;28;20171;-48
2021/06/04 02:34:05;;;;;;;1999.90;999.90;;;7.80;99.90;;;;;;5094960;28;20199;-49
2021/06/04 02:36:37;;;;;;;1999.90;999.90;;;7.80;99.90;;;;;;5094726;28;20640;-50
2021/06/04 02:39:04;;;;;;;1999.90;999.90;;;7.70;99.90;;;;;;5094129;28;20180;-50
2021/06/04 02:41:36;;;;;;;1999.90;999.90;;;7.70;99.90;;;;;;5094946;28;20183;-48
2021/06/04 02:44:19;;;;;;;1999.90;999.90;;;7.70;99.90;;;;;;5094726;28;20164;-49
2021/06/04 02:46:53;;;;;;;1999.90;999.90;;;7.60;99.90;;;;;;5094650;28;20618;-49
2021/06/04 02:49:21;;;;;;;1999.90;999.90;;;7.50;99.90;;;;;;5094662;28;20155;-48
2021/06/04 02:52:10;;;;;;;1999.90;999.90;;;7.50;99.90;;;;;;5094504;28;20312;-47
2021/06/04 02:54:41;;;;;;;1999.90;999.90;;;7.40;99.90;;;;;;5094515;28;20188;-48
2021/06/04 02:57:12;;;;;;;1999.90;999.90;;;7.40;99.90;;;;;;5094463;28;20669;-49
2021/06/04 02:59:42;;;;;;;1999.90;999.90;;;7.30;99.90;;;;;;5094563;28;20245;-49
2021/06/04 03:02:22;;;;;;;1999.90;999.90;;;7.30;99.90;;;;;;5094294;28;20164;-47
2021/06/04 03:05:10;;;;;;;1999.90;999.90;;;7.30;99.90;;;;;;5094425;28;20170;-48
2021/06/04 03:07:41;;;;;;;1999.90;999.90;;;7.30;99.90;;;;;;5094242;28;20159;-49
2021/06/04 03:10:24;;;;;;;1999.90;999.90;;;7.30;99.90;;;;;;5094171;28;20168;-49
2021/06/04 03:12:52;;;;;;;1999.90;999.90;;;7.40;99.90;;;;;;5094177;28;20159;-49
2021/06/04 03:15:28;;;;;;;1999.90;999.90;;;7.30;99.90;;;;;;5094221;28;20246;-52
2021/06/04 03:17:56;;;;;;;1999.90;999.90;;;7.40;99.90;;;;;;5094114;28;20162;-48
2021/06/04 03:20:28;;;;;;;1999.90;999.90;;;7.30;99.90;;;;;;5094062;28;20244;-49
2021/06/04 03:22:55;;;;;;;1999.90;999.90;;;7.40;99.90;;;;;;5094075;28;20161;-48
2021/06/04 03:25:30;;;;;;;1999.90;999.90;;;7.40;99.90;;;;;;5092176;28;20215;-51
2021/06/04 03:27:57;;;;;;;1999.90;999.90;;;7.40;99.90;;;;;;5093867;28;20156;-50
2021/06/04 03:30:31;;;;;;;1999.90;999.90;;;7.40;99.90;;;;;;5093872;28;20191;-48
2021/06/04 03:32:58;;;;;;;1999.90;999.90;;;7.30;99.90;;;;;;5093775;28;20636;-48
2021/06/04 03:35:25;;;;;;;1999.90;999.90;;;7.20;99.90;;;;;;5093702;28;20293;-50
2021/06/04 03:37:52;;;;;;;1999.90;999.90;;;7.30;99.90;;;;;;5093602;28;20164;-48
2021/06/04 03:40:22;;;;;;;1999.90;999.90;;;7.20;99.90;;;;;;5093651;28;20569;-48
2021/06/04 03:42:50;;;;;;;1999.90;999.90;;;7.20;99.90;;;;;;5093552;28;20168;-48
2021/06/04 03:45:23;;;;;;;1999.90;999.90;;;7.20;99.90;;;;;;5093558;28;20648;-50
2021/06/04 03:47:50;;;;;;;1999.90;999.90;;;7.10;99.90;;;;;;5093617;28;20530;-48
2021/06/04 03:50:17;;;;;;;1999.90;999.90;;;7.10;99.90;;;;;;5093240;28;20167;-52
2021/06/04 03:52:45;;;;;;;1999.90;999.90;;;7.00;99.90;;;;;;5093499;28;20225;-51
2021/06/04 03:55:15;;;;;;;1999.90;999.90;;;6.90;99.90;;;;;;5093379;28;20207;-47
2021/06/04 03:57:43;;;;;;;1999.90;999.90;;;6.90;99.90;;;;;;5093343;28;20178;-47
2021/06/04 04:00:23;;;;;;;1999.90;999.90;;;6.90;99.90;;;;;;5093421;28;20194;-48
2021/06/04 04:02:50;;;;;;;1999.90;999.90;;;6.80;99.90;;;;;;5093678;28;20169;-56
2021/06/04 04:05:17;;;;;;;1999.90;999.90;;;6.80;99.90;;;;;;5093420;28;20571;-47
2021/06/04 04:07:44;;;;;;;1999.90;999.90;;;6.90;99.90;;;;;;5093334;28;20221;-48
2021/06/04 04:10:12;;;;;;;1999.90;999.90;;;6.90;99.90;;;;;;5093428;28;20167;-53
2021/06/04 04:12:40;;;;;;;1999.90;999.90;;;7.00;99.90;;;;;;5093386;28;20640;-48
2021/06/04 04:15:16;;;;;;;1999.90;999.90;;;7.10;99.90;;;;;;5093220;28;20211;-51
2021/06/04 04:17:44;;;;;;;1999.90;999.90;;;6.90;99.90;;;;;;5093270;28;20162;-51
2021/06/04 04:20:14;;;;;;;1999.90;999.90;;;7.00;99.90;;;;;;5093237;28;20626;-49
2021/06/04 04:22:41;;;;;;;1999.90;999.90;;;7.00;99.90;;;;;;5093268;28;20168;-48
2021/06/04 04:25:09;;;;;;;1999.90;999.90;;;7.00;99.90;;;;;;5092908;28;20222;-47
2021/06/04 04:27:36;;;;;;;1999.90;999.90;;;6.90;99.90;;;;;;5093225;28;20187;-47
2021/06/04 04:30:06;;;;;;;1999.90;999.90;;;6.80;99.90;;;;;;5093116;28;20163;-48
2021/06/04 04:32:33;;;;;;;1999.90;999.90;;;6.90;99.90;;;;;;5093126;28;20168;-48
2021/06/04 04:35:00;;;;;;;1999.90;999.90;;;6.90;99.90;;;;;;5093004;28;20191;-51
2021/06/04 04:37:27;;;;;;;1999.90;999.90;;;6.80;99.90;;;;;;5093060;28;20163;-50
2021/06/04 04:39:54;;;;;;;1999.90;999.90;;;6.70;99.90;;;;;;5093065;28;20165;-49
2021/06/04 04:42:22;;;;;;;1999.90;999.90;;;6.70;99.90;;;;;;5092983;28;20225;-49
2021/06/04 04:44:50;;;;;;;1999.90;999.90;;;6.70;99.90;;;;;;5092894;28;20592;-48
2021/06/04 04:47:19;;;;;;;1999.90;999.90;;;6.70;99.90;;;;;;5092868;28;20190;-51
2021/06/04 04:49:45;;;;;;;1999.90;999.90;;;6.60;99.90;;;;;;5092918;28;20172;-47
2021/06/04 04:52:13;;;;;;;1999.90;999.90;;;6.60;99.90;;;;;;5093063;28;20175;-48
2021/06/04 04:54:53;;;;;;;1999.90;999.90;;;6.60;99.90;;;;;;5092995;28;20199;-49
2021/06/04 04:57:21;;;;;;;1999.90;999.90;;;6.60;99.90;;;;;;5092728;28;20157;-53
2021/06/04 04:59:48;;;;;;;1999.90;999.90;;;6.60;99.90;;;;;;5092702;28;20253;-48
2021/06/04 05:02:15;;;;;;;1999.90;999.90;;;6.60;99.90;;;;;;5096003;28;20661;-53
2021/06/04 05:04:43;;;;;;;1999.90;999.90;;;6.60;99.90;;;;;;5096423;28;20324;-47
2021/06/04 05:07:10;;;;;;;1999.90;999.90;;;6.50;99.90;;;;;;5096382;28;20216;-48
2021/06/04 05:09:37;;;;;;;1999.90;999.90;;;6.40;99.90;;;;;;5096193;28;20175;-47
2021/06/04 05:12:04;;;;;;;1999.90;999.90;;;6.30;99.90;;;;;;5096141;28;20252;-47
2021/06/04 05:14:31;;;;;;;1999.90;999.90;;;6.30;99.90;;;;;;5095972;28;20199;-56
2021/06/04 05:17:00;;;;;;;1999.90;999.90;;;6.30;99.90;;;;;;5096078;28;20174;-61
2021/06/04 05:19:28;;;;;;;1999.90;999.90;;;6.30;99.90;;;;;;5095879;28;20637;-46
2021/06/04 05:21:56;;;;;;;1999.90;999.90;;;6.30;99.90;;;;;;5095877;28;20253;-46
2021/06/04 05:24:23;;;;;;;1999.90;999.90;;;6.30;99.90;;;;;;5095614;28;20170;-45
2021/06/04 05:26:51;;;;;;;1999.90;999.90;;;6.40;99.90;;;;;;5095650;28;20170;-48
2021/06/04 05:29:18;;;;;;;1999.90;999.90;;;6.50;99.90;;;;;;5095448;28;20181;-46
2021/06/04 05:31:45;;;;;;;1999.90;999.90;;;6.50;99.90;;;;;;5095396;28;20171;-46
2021/06/04 05:34:13;;;;;;;1999.90;999.90;;;6.40;99.90;;;;;;5095329;28;20218;-45
2021/06/04 05:36:40;;;;;;;1999.90;999.90;;;6.30;99.90;;;;;;5095127;28;20173;-46
2021/06/04 05:39:16;;;;;;;1999.90;999.90;;;6.40;99.90;;;;;;5095204;28;20202;-48
2021/06/04 05:41:48;;;;;;;1999.90;999.90;;;6.30;99.90;;;;;;5095257;28;20606;-54
2021/06/04 05:44:19;;;;;;;1999.90;999.90;;;6.20;99.90;;;;;;5095391;28;20163;-46
2021/06/04 05:46:49;;;;;;;1999.90;999.90;;;6.20;99.90;;;;;;5095146;28;20231;-45
2021/06/04 05:49:16;;;;;;;1999.90;999.90;;;6.30;99.90;;;;;;5095127;28;20238;-47
2021/06/04 05:51:43;;;;;;;1999.90;999.90;;;6.30;99.90;;;;;;5095063;28;20226;-46
2021/06/04 05:54:11;;;;;;;1999.90;999.90;;;6.40;99.90;;;;;;5094716;28;20198;-46
2021/06/04 05:56:38;;;;;;;1999.90;999.90;;;6.40;99.90;;;;;;5094712;28;20171;-47
2021/06/04 05:59:05;;;;;;;1999.90;999.90;;;6.40;99.90;;;;;;5094739;28;20561;-50
2021/06/04 06:14:00;;;;;;;1999.90;999.90;;;6.60;99.90;;;;;;5151269;27;20533;-55
2021/06/04 06:16:30;;;;;;;1999.90;999.90;;;7.00;99.90;;;;;;5130432;27;20415;-52
2021/06/04 06:18:57;;;;;;;1999.90;999.90;;;7.00;99.90;;;;;;5130332;27;20170;-47
2021/06/04 06:21:25;;;;;;;1999.90;999.90;;;7.00;99.90;;;;;;5130149;27;20265;-52
2021/06/04 06:23:53;;;;;;;1999.90;999.90;;;7.00;99.90;;;;;;5129987;27;20709;-53
2021/06/04 06:26:23;;;;;;;1999.90;999.90;;;6.90;99.90;;;;;;5130338;27;20174;-54
2021/06/04 06:28:53;;;;;;;1999.90;999.90;;;6.90;99.90;;;;;;5130036;27;20631;-50
2021/06/04 06:31:24;;;;;;;1999.90;999.90;;;6.90;99.90;;;;;;5130565;27;20594;-55
2021/06/04 06:33:53;;;;;;;1999.90;999.90;;;6.90;99.90;;;;;;5130343;27;20524;-50
2021/06/04 06:36:26;;;;;;;1999.90;999.90;;;7.00;99.90;;;;;;5130286;27;20191;-53
2021/06/04 06:38:55;;;;;;;1999.90;999.90;;;7.30;99.90;;;;;;5130286;27;20246;-49
2021/06/04 06:41:23;;;;;;;1999.90;999.90;;;7.30;99.90;;;;;;5130130;27;20185;-57
2021/06/04 06:43:52;;;;;;;1999.90;999.90;;;7.40;99.90;;;;;;5130345;27;20173;-49
2021/06/04 06:46:21;;;;;;;1999.90;999.90;;;8.00;99.90;;;;;;5130249;27;20173;-45
2021/06/04 06:48:49;;;;;;;1999.90;999.90;;;8.30;99.90;;;;;;5130230;27;20222;-45
2021/06/04 06:51:18;;;;;;;1999.90;999.90;;;8.20;99.90;;;;;;5130242;27;20166;-58
2021/06/04 06:53:45;;;;;;;1999.90;999.90;;;8.20;99.90;;;;;;5130234;27;20165;-48
2021/06/04 06:56:16;;;;;;;1999.90;999.90;;;8.20;99.90;;;;;;5129972;27;20210;-46
2021/06/04 06:58:43;;;;;;;1999.90;999.90;;;8.20;99.90;;;;;;5130157;27;20170;-54
2021/06/04 07:01:10;;;;;;;1999.90;999.90;;;8.20;99.90;;;;;;5130037;27;20624;-49
2021/06/04 07:03:40;;;;;;;1999.90;999.90;;;8.30;99.90;;;;;;5129882;27;20202;-50
2021/06/04 07:06:22;;;;;;;1999.90;999.90;;;8.70;99.90;;;;;;5129989;27;20174;-49
2021/06/04 07:08:48;;;;;;;1999.90;999.90;;;8.80;99.90;;;;;;5130100;27;20515;-47
2021/06/04 07:11:17;;;;;;;1999.90;999.90;;;8.90;99.90;;;;;;5130095;27;20158;-46
2021/06/04 07:13:45;;;;;;;1999.90;999.90;;;9.00;99.90;;;;;;5122645;27;20227;-47
2021/06/04 07:16:12;;;;;;;1999.90;999.90;;;9.00;99.90;;;;;;5115830;28;20257;-45
2021/06/04 07:18:40;;;;;;;1999.90;999.90;;;9.10;99.90;;;;;;5115851;27;20251;-47
2021/06/04 07:21:10;;;;;;;1999.90;999.90;;;9.10;99.90;;;;;;5115717;28;20239;-52
2021/06/04 07:23:38;;;;;;;1999.90;999.90;;;9.20;99.90;;;;;;5115931;27;20220;-53
2021/06/04 07:26:06;;;;;;;1999.90;999.90;;;9.40;99.90;;;;;;5115911;28;20163;-55
2021/06/04 07:28:36;;;;;;;1999.90;999.90;;;9.80;99.90;;;;;;5115843;28;20681;-53
2021/06/04 07:31:05;;;;;;;1999.90;999.90;;;10.00;99.90;;;;;;5115691;28;20163;-57
2021/06/04 07:33:36;;;;;;;1999.90;999.90;;;10.10;99.90;;;;;;5115696;28;20671;-51
2021/06/04 07:36:07;;;;;;;1999.90;999.90;;;10.20;99.90;;;;;;5115625;28;20342;-44
2021/06/04 07:38:34;;;;;;;1999.90;999.90;;;10.20;99.90;;;;;;5115634;27;20235;-53
2021/06/04 07:41:02;;;;;;;1999.90;999.90;;;10.30;99.90;;;;;;5115439;28;20163;-53
2021/06/04 07:43:32;;;;;;;1999.90;999.90;;;11.30;99.90;;;;;;5115393;28;20203;-57
2021/06/04 07:45:59;;;;;;;1999.90;999.90;;;11.60;99.90;;;;;;5115376;28;20180;-47
2021/06/04 07:48:26;;;;;;;1999.90;999.90;;;11.60;99.90;;;;;;5115250;28;20521;-52
2021/06/04 07:50:56;;;;;;;1999.90;999.90;;;11.50;99.90;;;;;;5115201;28;20170;-52
2021/06/04 07:53:29;;;;;;;1999.90;999.90;;;11.50;99.90;;;;;;5113949;28;20579;-50
2021/06/04 07:55:57;;;;;;;1999.90;999.90;;;11.50;99.90;;;;;;5113881;28;20235;-46
2021/06/04 07:58:26;;;;;;;1999.90;999.90;;;11.40;99.90;;;;;;5115085;28;20166;-46
2021/06/04 08:00:53;;;;;;;1999.90;999.90;;;11.40;99.90;;;;;;5115251;28;20632;-45
2021/06/04 08:03:24;;;;;;;1999.90;999.90;;;12.20;99.90;;;;;;5114966;28;20275;-49
2021/06/04 08:05:51;;;;;;;1999.90;999.90;;;13.20;99.90;;;;;;5115068;28;20297;-52
2021/06/04 08:08:18;;;;;;;1999.90;999.90;;;13.70;98.10;;;;;;5114840;28;20288;-48
2021/06/04 08:10:46;;;;;;;1999.90;999.90;;;13.50;95.90;;;;;;5114887;28;20212;-48
2021/06/04 08:24:47;;;;;;;1999.90;999.90;;;13.10;95.60;;;;;;5110362;27;20527;-47
2021/06/04 08:27:17;;;;;;;1999.90;999.90;;;13.60;95.40;;;;;;5110500;28;20302;-48
2021/06/04 08:29:47;;;;;;;1999.90;999.90;;;14.40;92.30;;;;;;5109236;28;20180;-51
2021/06/04 08:32:15;;;;;;;1999.90;999.90;;;14.80;91.10;;;;;;5109839;28;20679;-49
2021/06/04 08:34:43;;;;;;;1999.90;999.90;;;14.90;91.60;;;;;;5109932;28;20169;-50
2021/06/04 08:37:10;;;;;;;1999.90;999.90;;;14.80;92.70;;;;;;5109214;28;20293;-58
2021/06/04 08:39:39;;;;;;;1999.90;999.90;;;14.60;93.30;;;;;;5109749;28;20313;-47
2021/06/04 08:42:18;;;;;;;1999.90;999.90;;;14.40;94.40;;;;;;5109684;28;20597;-48
2021/06/04 08:45:03;;;;;;;1999.90;999.90;;;14.30;96.80;;;;;;5109033;28;20182;-51
2021/06/04 08:47:34;;;;;;;1999.90;999.90;;;14.30;96.10;;;;;;5110079;28;20158;-45
2021/06/04 08:50:28;;;;;;;1999.90;999.90;;;14.30;95.90;;;;;;5109951;28;20183;-53
2021/06/04 08:53:01;;;;;;;1999.90;999.90;;;14.40;93.30;;;;;;5109436;28;20197;-58
2021/06/04 08:55:36;;;;;;;1999.90;999.90;;;14.50;93.00;;;;;;5109803;28;20232;-49
2021/06/04 08:58:15;;;;;;;1999.90;999.90;;;14.50;93.70;;;;;;5109180;28;20159;-46
2021/06/04 09:00:50;;;;;;;1999.90;999.90;;;14.70;92.20;;;;;;5109210;28;20163;-52
2021/06/04 09:03:36;;;;;;;1999.90;999.90;;;14.70;93.60;;;;;;5109488;28;20324;-49
2021/06/04 09:06:08;;;;;;;1999.90;999.90;;;14.90;90.90;;;;;;5108860;28;20155;-55
2021/06/04 09:08:38;;;;;;;1999.90;999.90;;;15.40;84.50;;;;;;5109587;28;20159;-47
2021/06/04 09:11:29;;;;;;;1999.90;999.90;;;15.60;73.30;;;;;;5108064;28;20190;-52
2021/06/04 09:13:56;;;;;;;1999.90;999.90;;;15.70;72.10;;;;;;5107873;28;20725;-46
2021/06/04 09:16:50;;;;;;;1999.90;999.90;;;15.80;67.60;;;;;;5107311;28;20167;-48
2021/06/04 09:19:54;;;;;;;1999.90;999.90;;;15.90;69.70;;;;;;5105615;28;20252;-49
2021/06/04 09:22:22;;;;;;;1999.90;999.90;;;16.00;69.90;;;;;;5107980;28;20534;-53
2021/06/04 09:24:50;;;;;;;1999.90;999.90;;;16.10;70.20;;;;;;5120930;27;20194;-54
2021/06/04 09:27:26;;;;;;;1999.90;999.90;;;17.10;68.00;;;;;;5115491;28;20693;-53
2021/06/04 09:30:17;;;;;;;1999.90;999.90;;;17.20;67.70;;;;;;5115732;28;20326;-60
2021/06/04 09:33:11;;;;;;;1999.90;999.90;;;17.20;61.90;;;;;;5115837;28;20320;-57
2021/06/04 09:35:53;;;;;;;1999.90;999.90;;;17.00;64.50;;;;;;5115659;28;20621;-59
2021/06/04 09:38:31;;;;;;;1999.90;999.90;;;17.10;67.30;;;;;;5115605;28;20218;-57
2021/06/04 09:41:10;;;;;;;1999.90;999.90;;;17.50;67.90;;;;;;5115425;28;20159;-57
2021/06/04 09:43:37;;;;;;;1999.90;999.90;;;17.80;56.70;;;;;;5115653;28;20195;-50
2021/06/04 09:46:07;;;;;;;1999.90;999.90;;;17.90;57.80;;;;;;5115228;28;20163;-52
2021/06/04 09:49:03;;;;;;;1999.90;999.90;;;17.90;56.90;;;;;;5115113;28;20178;-49
2021/06/04 09:51:38;;;;;;;1999.90;999.90;;;17.90;58.60;;;;;;5098219;28;20190;-55
2021/06/04 09:54:28;;;;;;;1999.90;999.90;;;18.00;58.20;;;;;;5114969;28;20279;-60
2021/06/04 09:57:10;;;;;;;1999.90;999.90;;;18.20;57.30;;;;;;5115098;28;20705;-58
2021/06/04 09:59:38;;;;;;;1999.90;999.90;;;18.40;54.60;;;;;;5114027;28;20171;-57
2021/06/04 10:02:23;;;;;;;1999.90;999.90;;;18.50;53.30;;;;;;5115173;28;20171;-56
2021/06/04 10:04:50;;;;;;;1999.90;999.90;;;18.80;56.00;;;;;;5113892;28;20160;-58
2021/06/04 10:07:22;;;;;;;1999.90;999.90;;;19.20;57.50;;;;;;5115069;28;20202;-59
2021/06/04 10:09:49;;;;;;;1999.90;999.90;;;19.60;55.20;;;;;;5114911;28;20167;-58
2021/06/04 10:12:38;;;;;;;1999.90;999.90;;;20.20;51.00;;;;;;5114333;28;20206;-58
2021/06/04 10:15:23;;;;;;;1999.90;999.90;;;21.10;48.50;;;;;;5114629;28;20167;-58
2021/06/04 10:20:32;;;;;;;1999.90;999.90;;;21.50;48.60;;;;;;5113540;28;20529;-58
2021/06/04 10:23:10;;;;;;;1999.90;999.90;;;21.20;47.30;;;;;;5114572;28;20263;-57
2021/06/04 10:25:57;;;;;;;1999.90;999.90;;;20.90;47.50;;;;;;5114525;28;20175;-59
2021/06/04 10:28:44;;;;;;;1999.90;999.90;;;20.60;46.40;;;;;;5114863;28;20166;-60
2021/06/04 10:31:46;;;;;;;1999.90;999.90;;;20.50;43.80;;;;;;5113520;28;20250;-57
2021/06/04 10:34:33;;;;;;;1999.90;999.90;;;20.50;44.60;;;;;;5114372;28;20659;-56
2021/06/04 10:37:04;;;;;;;1999.90;999.90;;;21.00;45.50;;;;;;5113505;28;20238;-57
2021/06/04 10:39:44;;;;;;;1999.90;999.90;;;21.40;43.50;;;;;;5114228;28;20156;-50
2021/06/04 10:42:42;;;;;;;1999.90;999.90;;;21.60;42.90;;;;;;5114292;28;20151;-51
2021/06/04 10:45:20;;;;;;;1999.90;999.90;;;21.70;41.30;;;;;;5113483;28;20167;-56
2021/06/04 10:48:05;;;;;;;1999.90;999.90;;;21.70;37.90;;;;;;5112936;28;20162;-52
2021/06/04 10:51:02;;;;;;;1999.90;999.90;;;21.60;39.70;;;;;;5114345;28;20151;-55
2021/06/04 10:53:43;;;;;;;1999.90;999.90;;;21.50;40.60;;;;;;5114109;28;20681;-56
2021/06/04 10:56:32;;;;;;;1999.90;999.90;;;21.40;41.10;;;;;;5114609;28;20151;-51
2021/06/04 10:58:59;;;;;;;1999.90;999.90;;;21.80;44.10;;;;;;5113889;28;20553;-55
2021/06/04 11:01:38;;;;;;;1999.90;999.90;;;22.00;44.10;;;;;;5114439;28;20187;-54
2021/06/04 11:04:36;;;;;;;1999.90;999.90;;;22.20;43.40;;;;;;5114339;28;20219;-57
2021/06/04 11:07:23;;;;;;;1999.90;999.90;;;22.30;43.80;;;;;;5098599;28;20258;-57
2021/06/04 11:10:01;;;;;;;1999.90;999.90;;;22.30;43.30;;;;;;5113649;28;20544;-57
2021/06/04 11:13:02;;;;;;;1999.90;999.90;;;22.30;42.30;;;;;;5113984;28;20294;-54
2021/06/04 11:15:45;;;;;;;1999.90;999.90;;;22.30;42.80;;;;;;5114130;28;20242;-56
2021/06/04 11:18:39;;;;;;;1999.90;999.90;;;22.20;43.60;;;;;;5113891;28;20155;-50
2021/06/04 11:21:22;;;;;;;1999.90;999.90;;;22.20;44.00;;;;;;5114166;28;20182;-49
2021/06/04 11:23:57;;;;;;;1999.90;999.90;;;22.30;41.90;;;;;;5113501;28;20715;-46
2021/06/04 11:26:54;;;;;;;1999.90;999.90;;;22.50;42.70;;;;;;5113803;28;20147;-56
2021/06/04 11:29:30;;;;;;;1999.90;999.90;;;22.60;43.00;;;;;;5113796;28;20163;-47
2021/06/04 11:32:06;;;;;;;1999.90;999.90;;;22.80;43.30;;;;;;5113622;28;20155;-49
2021/06/04 11:35:01;;;;;;;1999.90;999.90;;;22.70;42.40;;;;;;5113623;28;20174;-49
2021/06/04 11:38:00;;;;;;;1999.90;999.90;;;22.70;40.90;;;;;;5113590;28;20179;-47
2021/06/04 11:40:34;;;;;;;1999.90;999.90;;;22.90;42.00;;;;;;5113174;28;20178;-51
2021/06/04 11:43:04;;;;;;;1999.90;999.90;;;22.80;41.10;;;;;;5113520;28;20156;-51
2021/06/04 11:45:33;;;;;;;1999.90;999.90;;;22.80;42.70;;;;;;5113406;28;20163;-55
2021/06/04 11:48:20;;;;;;;1999.90;999.90;;;22.80;41.30;;;;;;5113191;28;20190;-55
2021/06/04 11:50:48;;;;;;;1999.90;999.90;;;22.80;41.60;;;;;;5072332;28;20651;-51
2021/06/04 11:53:35;;;;;;;1999.90;999.90;;;23.00;42.30;;;;;;5113488;28;20687;-54
2021/06/04 11:56:03;;;;;;;1999.90;999.90;;;23.00;43.00;;;;;;5113366;28;20155;-49
2021/06/04 11:58:30;;;;;;;1999.90;999.90;;;23.10;42.60;;;;;;5113500;28;20171;-57
2021/06/04 12:01:12;;;;;;;1999.90;999.90;;;23.00;41.20;;;;;;5113356;28;20193;-57
2021/06/04 12:03:43;;;;;;;1999.90;999.90;;;23.10;41.10;;;;;;5113356;28;20727;-47
2021/06/04 12:06:26;;;;;;;1999.90;999.90;;;23.10;38.60;;;;;;5113213;28;20230;-50
2021/06/04 12:08:56;;;;;;;1999.90;999.90;;;22.90;39.00;;;;;;5113101;28;20620;-48
2021/06/04 12:11:25;;;;;;;1999.90;999.90;;;22.80;41.30;;;;;;5113192;28;20173;-56
2021/06/04 12:13:54;;;;;;;1999.90;999.90;;;22.90;41.70;;;;;;5113191;28;20195;-58
2021/06/04 12:16:30;;;;;;;1999.90;999.90;;;23.00;43.10;;;;;;5112646;28;20178;-59
2021/06/04 12:19:04;;;;;;;1999.90;999.90;;;23.00;43.80;;;;;;5111791;28;20604;-55
2021/06/04 12:21:46;;;;;;;1999.90;999.90;;;22.80;44.50;;;;;;5112393;28;20158;-69
2021/06/04 12:24:22;;;;;;;1999.90;999.90;;;22.60;45.80;;;;;;5112289;28;20544;-55
2021/06/04 12:26:57;;;;;;;1999.90;999.90;;;22.30;46.30;;;;;;5111121;28;20262;-51
2021/06/04 12:29:25;;;;;;;1999.90;999.90;;;22.20;46.70;;;;;;5112405;28;20537;-70
2021/06/04 12:32:04;;;;;;;1999.90;999.90;;;22.10;44.10;;;;;;5112384;28;20175;-64
2021/06/04 12:34:51;;;;;;;1999.90;999.90;;;22.00;44.40;;;;;;5112705;28;20191;-68
2021/06/04 12:37:24;;;;;;;1999.90;999.90;;;21.90;46.30;;;;;;5112850;28;20159;-54
2021/06/04 12:39:54;;;;;;;1999.90;999.90;;;21.90;46.20;;;;;;5112927;28;20542;-70
2021/06/04 12:42:30;;;;;;;1999.90;999.90;;;21.70;45.60;;;;;;5112967;28;20633;-58
2021/06/04 12:45:17;;;;;;;1999.90;999.90;;;21.70;44.30;;;;;;5112665;28;20155;-64
2021/06/04 12:47:55;;;;;;;1999.90;999.90;;;21.70;43.60;;;;;;5112799;28;20178;-55
2021/06/04 12:50:25;;;;;;;1999.90;999.90;;;21.50;43.50;;;;;;5113129;28;20156;-71
2021/06/04 12:53:07;;;;;;;1999.90;999.90;;;21.50;45.20;;;;;;5113307;28;20190;-69
2021/06/04 12:55:35;;;;;;;1999.90;999.90;;;21.40;44.90;;;;;;5112950;28;20155;-66
2021/06/04 12:58:29;;;;;;;1999.90;999.90;;;21.40;42.40;;;;;;5112673;28;20191;-72
2021/06/04 13:01:19;;;;;;;1999.90;999.90;;;21.30;45.60;;;;;;5116492;28;20174;-67
2021/06/04 13:04:11;;;;;;;1999.90;999.90;;;21.30;44.70;;;;;;5116686;28;20525;-72
2021/06/04 13:06:52;;;;;;;1999.90;999.90;;;21.30;43.90;;;;;;5116643;28;20176;-56
2021/06/04 13:09:38;;;;;;;1999.90;999.90;;;21.30;43.90;;;;;;5116535;28;20215;-64
2021/06/04 13:12:27;;;;;;;1999.90;999.90;;;21.30;42.00;;;;;;5116251;28;20217;-50
2021/06/04 13:14:56;;;;;;;1999.90;999.90;;;21.30;44.20;;;;;;5114998;28;20164;-56